sensor_id;sensor_type;location;lat;lon;timestamp;P1;durP1;ratioP1;P2;durP2;ratioP2
52414;SDS011;38340;52.964;6.086;2022-07-01T00:01:57;4.47;;;1.42;;
52414;SDS011;38340;52.964;6.086;2022-07-01T00:04:22;5.03;;;1.70;;
52414;SDS011;38340;52.964;6.086;2022-07-01T00:06:52;5.10;;;1.50;;
52414;SDS011;38340;52.964;6.086;2022-07-01T00:09:21;3.80;;;1.50;;
52414;SDS011;38340;52.964;6.086;2022-07-01T00:11:47;2.88;;;1.55;;
52414;SDS011;38340;52.964;6.086;2022-07-01T00:14:14;4.90;;;1.75;;
52414;SDS011;38340;52.964;6.086;2022-07-01T00:16:40;7.88;;;2.00;;
52414;SDS011;38340;52.964;6.086;2022-07-01T00:19:06;3.40;;;1.80;;
52414;SDS011;38340;52.964;6.086;2022-07-01T00:21:32;4.68;;;1.63;;
52414;SDS011;38340;52.964;6.086;2022-07-01T00:23:58;4.90;;;1.67;;
52414;SDS011;38340;52.964;6.086;2022-07-01T00:26:24;3.03;;;1.80;;
52414;SDS011;38340;52.964;6.086;2022-07-01T00:28:50;2.47;;;1.70;;
52414;SDS011;38340;52.964;6.086;2022-07-01T00:31:15;2.80;;;1.90;;
52414;SDS011;38340;52.964;6.086;2022-07-01T00:33:41;3.55;;;1.58;;
52414;SDS011;38340;52.964;6.086;2022-07-01T00:36:07;3.30;;;1.92;;
52414;SDS011;38340;52.964;6.086;2022-07-01T00:38:32;3.47;;;2.10;;
52414;SDS011;38340;52.964;6.086;2022-07-01T00:40:58;3.03;;;1.70;;
52414;SDS011;38340;52.964;6.086;2022-07-01T00:43:24;4.90;;;2.20;;
52414;SDS011;38340;52.964;6.086;2022-07-01T00:45:50;3.00;;;1.77;;
52414;SDS011;38340;52.964;6.086;2022-07-01T00:48:18;5.78;;;2.08;;
52414;SDS011;38340;52.964;6.086;2022-07-01T00:50:46;3.10;;;1.98;;
52414;SDS011;38340;52.964;6.086;2022-07-01T00:53:12;2.75;;;1.88;;
52414;SDS011;38340;52.964;6.086;2022-07-01T00:55:40;3.95;;;2.20;;
52414;SDS011;38340;52.964;6.086;2022-07-01T00:58:09;4.38;;;2.10;;
52414;SDS011;38340;52.964;6.086;2022-07-01T01:00:35;5.13;;;2.33;;
52414;SDS011;38340;52.964;6.086;2022-07-01T01:03:04;2.88;;;2.05;;
52414;SDS011;38340;52.964;6.086;2022-07-01T01:05:31;3.03;;;2.10;;
52414;SDS011;38340;52.964;6.086;2022-07-01T01:07:57;3.55;;;2.03;;
52414;SDS011;38340;52.964;6.086;2022-07-01T01:10:23;4.40;;;2.15;;
52414;SDS011;38340;52.964;6.086;2022-07-01T01:12:51;5.53;;;2.50;;
52414;SDS011;38340;52.964;6.086;2022-07-01T01:15:17;5.00;;;2.20;;
52414;SDS011;38340;52.964;6.086;2022-07-01T01:17:43;9.48;;;2.70;;
52414;SDS011;38340;52.964;6.086;2022-07-01T01:20:14;3.22;;;2.35;;
52414;SDS011;38340;52.964;6.086;2022-07-01T01:22:46;4.10;;;2.45;;
52414;SDS011;38340;52.964;6.086;2022-07-01T01:25:13;4.43;;;2.20;;
52414;SDS011;38340;52.964;6.086;2022-07-01T01:27:39;4.13;;;2.30;;
52414;SDS011;38340;52.964;6.086;2022-07-01T01:30:06;4.43;;;2.10;;
52414;SDS011;38340;52.964;6.086;2022-07-01T01:32:33;5.30;;;2.50;;
52414;SDS011;38340;52.964;6.086;2022-07-01T01:34:59;4.30;;;2.00;;
52414;SDS011;38340;52.964;6.086;2022-07-01T01:37:25;4.43;;;2.30;;
52414;SDS011;38340;52.964;6.086;2022-07-01T01:39:52;5.43;;;2.42;;
52414;SDS011;38340;52.964;6.086;2022-07-01T01:42:18;3.80;;;2.38;;
52414;SDS011;38340;52.964;6.086;2022-07-01T01:44:44;6.45;;;2.70;;
52414;SDS011;38340;52.964;6.086;2022-07-01T01:47:10;4.13;;;2.78;;
52414;SDS011;38340;52.964;6.086;2022-07-01T01:49:36;4.45;;;2.60;;
52414;SDS011;38340;52.964;6.086;2022-07-01T01:52:02;4.15;;;2.78;;
52414;SDS011;38340;52.964;6.086;2022-07-01T01:54:28;4.75;;;3.20;;
52414;SDS011;38340;52.964;6.086;2022-07-01T01:56:54;4.78;;;3.65;;
52414;SDS011;38340;52.964;6.086;2022-07-01T01:59:19;6.43;;;3.13;;
52414;SDS011;38340;52.964;6.086;2022-07-01T02:01:45;6.20;;;3.33;;
52414;SDS011;38340;52.964;6.086;2022-07-01T02:04:11;8.10;;;3.20;;
52414;SDS011;38340;52.964;6.086;2022-07-01T02:06:37;5.53;;;3.30;;
52414;SDS011;38340;52.964;6.086;2022-07-01T02:09:04;6.63;;;3.75;;
52414;SDS011;38340;52.964;6.086;2022-07-01T02:11:30;8.27;;;3.90;;
52414;SDS011;38340;52.964;6.086;2022-07-01T02:13:55;4.97;;;3.65;;
52414;SDS011;38340;52.964;6.086;2022-07-01T02:16:21;8.20;;;4.03;;
52414;SDS011;38340;52.964;6.086;2022-07-01T02:18:46;6.38;;;3.72;;
52414;SDS011;38340;52.964;6.086;2022-07-01T02:21:13;7.70;;;4.13;;
52414;SDS011;38340;52.964;6.086;2022-07-01T02:23:39;6.57;;;4.28;;
52414;SDS011;38340;52.964;6.086;2022-07-01T02:26:05;7.93;;;3.95;;
52414;SDS011;38340;52.964;6.086;2022-07-01T02:28:31;6.07;;;4.03;;
52414;SDS011;38340;52.964;6.086;2022-07-01T02:30:58;7.72;;;3.88;;
52414;SDS011;38340;52.964;6.086;2022-07-01T02:33:24;8.23;;;4.50;;
52414;SDS011;38340;52.964;6.086;2022-07-01T02:35:49;8.38;;;4.28;;
52414;SDS011;38340;52.964;6.086;2022-07-01T02:38:15;5.45;;;4.05;;
52414;SDS011;38340;52.964;6.086;2022-07-01T02:40:44;5.47;;;4.00;;
52414;SDS011;38340;52.964;6.086;2022-07-01T02:43:10;6.85;;;4.10;;
52414;SDS011;38340;52.964;6.086;2022-07-01T02:45:36;8.07;;;4.80;;
52414;SDS011;38340;52.964;6.086;2022-07-01T02:48:01;7.72;;;4.97;;
52414;SDS011;38340;52.964;6.086;2022-07-01T02:50:27;6.88;;;4.45;;
52414;SDS011;38340;52.964;6.086;2022-07-01T02:52:53;7.18;;;4.72;;
52414;SDS011;38340;52.964;6.086;2022-07-01T02:55:19;9.55;;;5.22;;
52414;SDS011;38340;52.964;6.086;2022-07-01T02:57:45;7.93;;;5.38;;
52414;SDS011;38340;52.964;6.086;2022-07-01T03:00:12;7.85;;;5.57;;
52414;SDS011;38340;52.964;6.086;2022-07-01T03:02:39;8.30;;;5.13;;
52414;SDS011;38340;52.964;6.086;2022-07-01T03:05:05;9.10;;;5.68;;
52414;SDS011;38340;52.964;6.086;2022-07-01T03:07:32;8.88;;;5.97;;
52414;SDS011;38340;52.964;6.086;2022-07-01T03:10:00;9.50;;;6.45;;
52414;SDS011;38340;52.964;6.086;2022-07-01T03:12:26;9.50;;;6.00;;
52414;SDS011;38340;52.964;6.086;2022-07-01T03:17:25;9.70;;;6.57;;
52414;SDS011;38340;52.964;6.086;2022-07-01T03:19:51;8.35;;;6.13;;
52414;SDS011;38340;52.964;6.086;2022-07-01T03:22:22;9.57;;;5.95;;
52414;SDS011;38340;52.964;6.086;2022-07-01T03:24:49;7.72;;;6.32;;
52414;SDS011;38340;52.964;6.086;2022-07-01T03:27:16;9.02;;;6.63;;
52414;SDS011;38340;52.964;6.086;2022-07-01T03:29:43;11.98;;;6.80;;
52414;SDS011;38340;52.964;6.086;2022-07-01T03:32:09;10.60;;;6.30;;
52414;SDS011;38340;52.964;6.086;2022-07-01T03:34:39;8.95;;;6.15;;
52414;SDS011;38340;52.964;6.086;2022-07-01T03:37:07;9.90;;;6.22;;
52414;SDS011;38340;52.964;6.086;2022-07-01T03:39:35;11.25;;;5.90;;
52414;SDS011;38340;52.964;6.086;2022-07-01T03:42:02;9.02;;;6.72;;
52414;SDS011;38340;52.964;6.086;2022-07-01T03:44:28;12.93;;;6.90;;
52414;SDS011;38340;52.964;6.086;2022-07-01T03:46:54;10.73;;;7.38;;
52414;SDS011;38340;52.964;6.086;2022-07-01T03:49:21;9.88;;;7.18;;
52414;SDS011;38340;52.964;6.086;2022-07-01T03:51:48;10.80;;;7.22;;
52414;SDS011;38340;52.964;6.086;2022-07-01T03:54:14;8.48;;;7.00;;
52414;SDS011;38340;52.964;6.086;2022-07-01T03:56:56;8.98;;;7.13;;
52414;SDS011;38340;52.964;6.086;2022-07-01T03:59:23;11.65;;;8.00;;
52414;SDS011;38340;52.964;6.086;2022-07-01T04:01:50;18.23;;;9.05;;
52414;SDS011;38340;52.964;6.086;2022-07-01T04:04:15;18.25;;;10.35;;
52414;SDS011;38340;52.964;6.086;2022-07-01T04:06:42;17.10;;;10.48;;
52414;SDS011;38340;52.964;6.086;2022-07-01T04:09:08;20.63;;;11.98;;
52414;SDS011;38340;52.964;6.086;2022-07-01T04:11:34;18.83;;;13.23;;
52414;SDS011;38340;52.964;6.086;2022-07-01T04:14:00;25.05;;;14.25;;
52414;SDS011;38340;52.964;6.086;2022-07-01T04:16:26;25.70;;;15.85;;
52414;SDS011;38340;52.964;6.086;2022-07-01T04:18:51;30.10;;;15.43;;
52414;SDS011;38340;52.964;6.086;2022-07-01T04:21:18;26.45;;;16.40;;
52414;SDS011;38340;52.964;6.086;2022-07-01T04:24:16;28.23;;;17.38;;
52414;SDS011;38340;52.964;6.086;2022-07-01T04:26:42;32.67;;;17.55;;
52414;SDS011;38340;52.964;6.086;2022-07-01T04:29:08;35.47;;;19.30;;
52414;SDS011;38340;52.964;6.086;2022-07-01T04:31:35;38.20;;;20.77;;
52414;SDS011;38340;52.964;6.086;2022-07-01T04:34:04;31.13;;;19.80;;
52414;SDS011;38340;52.964;6.086;2022-07-01T04:36:31;37.10;;;20.90;;
52414;SDS011;38340;52.964;6.086;2022-07-01T04:38:56;39.22;;;21.77;;
52414;SDS011;38340;52.964;6.086;2022-07-01T04:41:23;39.95;;;21.85;;
52414;SDS011;38340;52.964;6.086;2022-07-01T04:44:07;38.70;;;24.03;;
52414;SDS011;38340;52.964;6.086;2022-07-01T04:46:34;41.95;;;23.45;;
52414;SDS011;38340;52.964;6.086;2022-07-01T04:49:00;41.13;;;22.35;;
52414;SDS011;38340;52.964;6.086;2022-07-01T04:51:26;42.72;;;23.88;;
52414;SDS011;38340;52.964;6.086;2022-07-01T04:53:53;47.72;;;26.40;;
52414;SDS011;38340;52.964;6.086;2022-07-01T04:56:19;43.65;;;24.63;;
52414;SDS011;38340;52.964;6.086;2022-07-01T04:58:45;42.03;;;24.80;;
52414;SDS011;38340;52.964;6.086;2022-07-01T05:01:11;44.55;;;25.65;;
52414;SDS011;38340;52.964;6.086;2022-07-01T05:03:36;42.10;;;25.30;;
52414;SDS011;38340;52.964;6.086;2022-07-01T05:06:02;46.45;;;27.05;;
52414;SDS011;38340;52.964;6.086;2022-07-01T05:08:28;48.13;;;28.00;;
52414;SDS011;38340;52.964;6.086;2022-07-01T05:10:54;49.78;;;26.48;;
52414;SDS011;38340;52.964;6.086;2022-07-01T05:13:19;44.63;;;27.08;;
52414;SDS011;38340;52.964;6.086;2022-07-01T05:15:45;45.42;;;27.13;;
52414;SDS011;38340;52.964;6.086;2022-07-01T05:18:11;46.08;;;28.63;;
52414;SDS011;38340;52.964;6.086;2022-07-01T05:20:55;42.40;;;26.10;;
52414;SDS011;38340;52.964;6.086;2022-07-01T05:23:40;50.65;;;27.58;;
52414;SDS011;38340;52.964;6.086;2022-07-01T05:26:06;44.67;;;26.13;;
52414;SDS011;38340;52.964;6.086;2022-07-01T05:28:32;45.58;;;28.60;;
52414;SDS011;38340;52.964;6.086;2022-07-01T05:30:57;47.40;;;29.40;;
52414;SDS011;38340;52.964;6.086;2022-07-01T05:33:23;43.75;;;27.02;;
52414;SDS011;38340;52.964;6.086;2022-07-01T05:35:51;47.80;;;28.85;;
52414;SDS011;38340;52.964;6.086;2022-07-01T05:38:20;43.97;;;27.58;;
52414;SDS011;38340;52.964;6.086;2022-07-01T05:40:46;47.78;;;29.02;;
52414;SDS011;38340;52.964;6.086;2022-07-01T05:43:12;46.92;;;27.45;;
52414;SDS011;38340;52.964;6.086;2022-07-01T05:45:37;40.78;;;27.00;;
52414;SDS011;38340;52.964;6.086;2022-07-01T05:48:03;47.80;;;28.42;;
52414;SDS011;38340;52.964;6.086;2022-07-01T05:50:29;46.25;;;27.90;;
52414;SDS011;38340;52.964;6.086;2022-07-01T05:52:55;46.50;;;28.42;;
52414;SDS011;38340;52.964;6.086;2022-07-01T05:55:20;43.38;;;28.92;;
52414;SDS011;38340;52.964;6.086;2022-07-01T05:57:46;44.10;;;28.90;;
52414;SDS011;38340;52.964;6.086;2022-07-01T06:00:12;43.60;;;27.58;;
52414;SDS011;38340;52.964;6.086;2022-07-01T06:02:38;41.58;;;27.48;;
52414;SDS011;38340;52.964;6.086;2022-07-01T06:05:04;49.10;;;27.05;;
52414;SDS011;38340;52.964;6.086;2022-07-01T06:07:30;41.53;;;27.52;;
52414;SDS011;38340;52.964;6.086;2022-07-01T06:09:56;42.05;;;28.40;;
52414;SDS011;38340;52.964;6.086;2022-07-01T06:12:22;43.33;;;27.33;;
52414;SDS011;38340;52.964;6.086;2022-07-01T06:14:48;38.38;;;27.02;;
52414;SDS011;38340;52.964;6.086;2022-07-01T06:17:14;43.03;;;26.13;;
52414;SDS011;38340;52.964;6.086;2022-07-01T06:19:40;40.47;;;25.92;;
52414;SDS011;38340;52.964;6.086;2022-07-01T06:22:06;43.47;;;25.20;;
52414;SDS011;38340;52.964;6.086;2022-07-01T06:24:32;35.17;;;25.95;;
52414;SDS011;38340;52.964;6.086;2022-07-01T06:26:58;39.08;;;24.80;;
52414;SDS011;38340;52.964;6.086;2022-07-01T06:29:24;36.75;;;25.35;;
52414;SDS011;38340;52.964;6.086;2022-07-01T06:31:52;35.00;;;24.33;;
52414;SDS011;38340;52.964;6.086;2022-07-01T06:34:18;36.95;;;24.67;;
52414;SDS011;38340;52.964;6.086;2022-07-01T06:36:44;39.40;;;24.17;;
52414;SDS011;38340;52.964;6.086;2022-07-01T06:39:09;39.08;;;24.75;;
52414;SDS011;38340;52.964;6.086;2022-07-01T06:41:35;34.88;;;23.50;;
52414;SDS011;38340;52.964;6.086;2022-07-01T06:44:01;37.80;;;24.10;;
52414;SDS011;38340;52.964;6.086;2022-07-01T06:46:28;36.10;;;23.70;;
52414;SDS011;38340;52.964;6.086;2022-07-01T06:48:54;33.92;;;23.15;;
52414;SDS011;38340;52.964;6.086;2022-07-01T06:51:20;35.75;;;22.40;;
52414;SDS011;38340;52.964;6.086;2022-07-01T06:53:47;34.35;;;22.83;;
52414;SDS011;38340;52.964;6.086;2022-07-01T06:56:15;35.85;;;24.08;;
52414;SDS011;38340;52.964;6.086;2022-07-01T06:58:41;35.15;;;23.27;;
52414;SDS011;38340;52.964;6.086;2022-07-01T07:01:07;33.17;;;22.50;;
52414;SDS011;38340;52.964;6.086;2022-07-01T07:03:32;33.08;;;22.45;;
52414;SDS011;38340;52.964;6.086;2022-07-01T07:05:58;31.98;;;22.65;;
52414;SDS011;38340;52.964;6.086;2022-07-01T07:08:28;29.55;;;21.95;;
52414;SDS011;38340;52.964;6.086;2022-07-01T07:10:54;31.05;;;23.55;;
52414;SDS011;38340;52.964;6.086;2022-07-01T07:13:20;35.70;;;22.60;;
52414;SDS011;38340;52.964;6.086;2022-07-01T07:15:46;32.22;;;21.38;;
52414;SDS011;38340;52.964;6.086;2022-07-01T07:18:12;34.42;;;22.63;;
52414;SDS011;38340;52.964;6.086;2022-07-01T07:20:38;32.28;;;21.75;;
52414;SDS011;38340;52.964;6.086;2022-07-01T07:23:04;30.35;;;21.23;;
52414;SDS011;38340;52.964;6.086;2022-07-01T07:25:30;29.60;;;22.38;;
52414;SDS011;38340;52.964;6.086;2022-07-01T07:27:56;27.73;;;21.52;;
52414;SDS011;38340;52.964;6.086;2022-07-01T07:30:22;26.60;;;21.00;;
52414;SDS011;38340;52.964;6.086;2022-07-01T07:32:48;29.40;;;20.70;;
52414;SDS011;38340;52.964;6.086;2022-07-01T07:35:13;25.67;;;20.75;;
52414;SDS011;38340;52.964;6.086;2022-07-01T07:37:39;27.65;;;21.23;;
52414;SDS011;38340;52.964;6.086;2022-07-01T07:40:06;25.05;;;20.17;;
52414;SDS011;38340;52.964;6.086;2022-07-01T07:42:38;28.63;;;20.65;;
52414;SDS011;38340;52.964;6.086;2022-07-01T07:45:05;31.17;;;21.75;;
52414;SDS011;38340;52.964;6.086;2022-07-01T07:47:36;26.95;;;20.88;;
52414;SDS011;38340;52.964;6.086;2022-07-01T07:50:02;29.58;;;20.75;;
52414;SDS011;38340;52.964;6.086;2022-07-01T07:52:28;24.10;;;20.27;;
52414;SDS011;38340;52.964;6.086;2022-07-01T07:54:54;24.45;;;19.88;;
52414;SDS011;38340;52.964;6.086;2022-07-01T07:57:20;25.73;;;17.02;;
52414;SDS011;38340;52.964;6.086;2022-07-01T07:59:46;23.75;;;17.02;;
52414;SDS011;38340;52.964;6.086;2022-07-01T08:02:12;20.63;;;15.50;;
52414;SDS011;38340;52.964;6.086;2022-07-01T08:04:38;19.63;;;16.23;;
52414;SDS011;38340;52.964;6.086;2022-07-01T08:07:04;22.70;;;14.43;;
52414;SDS011;38340;52.964;6.086;2022-07-01T08:09:29;17.23;;;14.05;;
52414;SDS011;38340;52.964;6.086;2022-07-01T08:11:59;21.35;;;14.25;;
52414;SDS011;38340;52.964;6.086;2022-07-01T08:14:25;18.02;;;13.23;;
52414;SDS011;38340;52.964;6.086;2022-07-01T08:16:51;18.73;;;13.18;;
52414;SDS011;38340;52.964;6.086;2022-07-01T08:19:17;16.98;;;12.75;;
52414;SDS011;38340;52.964;6.086;2022-07-01T08:21:42;21.55;;;13.43;;
52414;SDS011;38340;52.964;6.086;2022-07-01T08:24:08;17.40;;;13.77;;
52414;SDS011;38340;52.964;6.086;2022-07-01T08:26:34;16.15;;;13.23;;
52414;SDS011;38340;52.964;6.086;2022-07-01T08:28:59;17.52;;;13.32;;
52414;SDS011;38340;52.964;6.086;2022-07-01T08:31:25;17.80;;;13.40;;
52414;SDS011;38340;52.964;6.086;2022-07-01T08:33:51;18.23;;;14.75;;
52414;SDS011;38340;52.964;6.086;2022-07-01T08:36:16;18.15;;;12.50;;
52414;SDS011;38340;52.964;6.086;2022-07-01T08:38:42;16.08;;;10.98;;
52414;SDS011;38340;52.964;6.086;2022-07-01T08:41:08;19.20;;;12.50;;
52414;SDS011;38340;52.964;6.086;2022-07-01T08:43:34;15.38;;;10.40;;
52414;SDS011;38340;52.964;6.086;2022-07-01T08:46:00;14.85;;;11.13;;
52414;SDS011;38340;52.964;6.086;2022-07-01T08:48:28;16.52;;;11.98;;
52414;SDS011;38340;52.964;6.086;2022-07-01T08:50:55;15.43;;;11.52;;
52414;SDS011;38340;52.964;6.086;2022-07-01T08:53:21;15.57;;;11.18;;
52414;SDS011;38340;52.964;6.086;2022-07-01T08:55:46;17.33;;;11.25;;
52414;SDS011;38340;52.964;6.086;2022-07-01T08:58:31;16.75;;;10.50;;
52414;SDS011;38340;52.964;6.086;2022-07-01T09:01:17;14.05;;;11.45;;
52414;SDS011;38340;52.964;6.086;2022-07-01T09:03:48;13.75;;;10.88;;
52414;SDS011;38340;52.964;6.086;2022-07-01T09:08:47;14.20;;;9.85;;
52414;SDS011;38340;52.964;6.086;2022-07-01T09:13:43;14.27;;;9.90;;
52414;SDS011;38340;52.964;6.086;2022-07-01T09:16:14;15.40;;;11.18;;
52414;SDS011;38340;52.964;6.086;2022-07-01T09:18:53;10.57;;;9.10;;
52414;SDS011;38340;52.964;6.086;2022-07-01T09:21:27;14.23;;;9.73;;
52414;SDS011;38340;52.964;6.086;2022-07-01T09:23:54;11.32;;;8.77;;
52414;SDS011;38340;52.964;6.086;2022-07-01T09:26:19;11.23;;;7.57;;
52414;SDS011;38340;52.964;6.086;2022-07-01T09:28:52;12.10;;;8.57;;
52414;SDS011;38340;52.964;6.086;2022-07-01T09:31:19;12.05;;;8.52;;
52414;SDS011;38340;52.964;6.086;2022-07-01T09:33:45;12.52;;;8.75;;
52414;SDS011;38340;52.964;6.086;2022-07-01T09:36:14;10.82;;;8.05;;
52414;SDS011;38340;52.964;6.086;2022-07-01T09:38:47;11.32;;;7.10;;
52414;SDS011;38340;52.964;6.086;2022-07-01T09:41:13;9.32;;;6.45;;
52414;SDS011;38340;52.964;6.086;2022-07-01T09:43:38;10.07;;;7.60;;
52414;SDS011;38340;52.964;6.086;2022-07-01T09:46:08;12.68;;;8.02;;
52414;SDS011;38340;52.964;6.086;2022-07-01T09:51:01;10.18;;;7.82;;
52414;SDS011;38340;52.964;6.086;2022-07-01T09:53:30;9.25;;;7.40;;
52414;SDS011;38340;52.964;6.086;2022-07-01T09:55:56;9.75;;;6.60;;
52414;SDS011;38340;52.964;6.086;2022-07-01T09:58:22;10.68;;;6.68;;
52414;SDS011;38340;52.964;6.086;2022-07-01T10:00:48;11.70;;;6.45;;
52414;SDS011;38340;52.964;6.086;2022-07-01T10:03:17;12.48;;;6.60;;
52414;SDS011;38340;52.964;6.086;2022-07-01T10:05:45;8.57;;;5.18;;
52414;SDS011;38340;52.964;6.086;2022-07-01T10:08:28;9.30;;;4.50;;
52414;SDS011;38340;52.964;6.086;2022-07-01T10:11:13;6.10;;;3.20;;
52414;SDS011;38340;52.964;6.086;2022-07-01T10:14:03;10.27;;;4.35;;
52414;SDS011;38340;52.964;6.086;2022-07-01T10:16:31;7.35;;;3.17;;
52414;SDS011;38340;52.964;6.086;2022-07-01T10:18:59;6.07;;;2.35;;
52414;SDS011;38340;52.964;6.086;2022-07-01T10:21:45;6.38;;;2.50;;
52414;SDS011;38340;52.964;6.086;2022-07-01T10:24:12;4.35;;;1.90;;
52414;SDS011;38340;52.964;6.086;2022-07-01T10:26:38;9.88;;;2.05;;
52414;SDS011;38340;52.964;6.086;2022-07-01T10:34:26;7.32;;;2.05;;
52414;SDS011;38340;52.964;6.086;2022-07-01T10:37:11;4.43;;;2.00;;
52414;SDS011;38340;52.964;6.086;2022-07-01T10:47:31;4.25;;;2.30;;
52414;SDS011;38340;52.964;6.086;2022-07-01T10:49:58;7.20;;;2.47;;
52414;SDS011;38340;52.964;6.086;2022-07-01T10:52:28;6.93;;;2.15;;
52414;SDS011;38340;52.964;6.086;2022-07-01T10:54:55;6.32;;;2.75;;
52414;SDS011;38340;52.964;6.086;2022-07-01T10:57:32;6.20;;;1.92;;
52414;SDS011;38340;52.964;6.086;2022-07-01T11:02:27;5.05;;;2.10;;
52414;SDS011;38340;52.964;6.086;2022-07-01T11:04:56;6.22;;;2.00;;
52414;SDS011;38340;52.964;6.086;2022-07-01T11:07:33;5.28;;;1.85;;
52414;SDS011;38340;52.964;6.086;2022-07-01T11:10:00;4.97;;;1.92;;
52414;SDS011;38340;52.964;6.086;2022-07-01T11:12:29;3.35;;;1.70;;
52414;SDS011;38340;52.964;6.086;2022-07-01T11:14:55;3.00;;;1.55;;
52414;SDS011;38340;52.964;6.086;2022-07-01T11:17:24;6.75;;;1.80;;
52414;SDS011;38340;52.964;6.086;2022-07-01T11:19:51;5.15;;;1.60;;
52414;SDS011;38340;52.964;6.086;2022-07-01T11:22:22;3.03;;;1.33;;
52414;SDS011;38340;52.964;6.086;2022-07-01T11:24:56;5.10;;;1.52;;
52414;SDS011;38340;52.964;6.086;2022-07-01T11:27:23;6.53;;;1.80;;
52414;SDS011;38340;52.964;6.086;2022-07-01T11:29:51;3.45;;;1.35;;
52414;SDS011;38340;52.964;6.086;2022-07-01T11:32:34;5.55;;;1.40;;
52414;SDS011;38340;52.964;6.086;2022-07-01T11:35:02;5.03;;;1.90;;
52414;SDS011;38340;52.964;6.086;2022-07-01T11:37:50;4.00;;;1.67;;
52414;SDS011;38340;52.964;6.086;2022-07-01T11:40:34;4.47;;;1.48;;
52414;SDS011;38340;52.964;6.086;2022-07-01T11:43:00;5.38;;;1.70;;
52414;SDS011;38340;52.964;6.086;2022-07-01T11:45:26;3.65;;;1.40;;
52414;SDS011;38340;52.964;6.086;2022-07-01T11:47:52;3.80;;;1.35;;
52414;SDS011;38340;52.964;6.086;2022-07-01T11:50:18;5.20;;;1.55;;
52414;SDS011;38340;52.964;6.086;2022-07-01T11:52:45;3.72;;;1.40;;
52414;SDS011;38340;52.964;6.086;2022-07-01T11:55:11;4.63;;;1.67;;
52414;SDS011;38340;52.964;6.086;2022-07-01T11:57:37;4.40;;;1.35;;
52414;SDS011;38340;52.964;6.086;2022-07-01T12:00:12;3.75;;;1.27;;
52414;SDS011;38340;52.964;6.086;2022-07-01T12:02:38;4.85;;;1.77;;
52414;SDS011;38340;52.964;6.086;2022-07-01T12:05:04;3.45;;;1.48;;
52414;SDS011;38340;52.964;6.086;2022-07-01T12:07:31;3.38;;;1.45;;
52414;SDS011;38340;52.964;6.086;2022-07-01T12:09:57;3.95;;;1.40;;
52414;SDS011;38340;52.964;6.086;2022-07-01T12:12:24;4.00;;;1.40;;
52414;SDS011;38340;52.964;6.086;2022-07-01T12:14:51;5.00;;;1.67;;
52414;SDS011;38340;52.964;6.086;2022-07-01T12:17:18;3.28;;;1.40;;
52414;SDS011;38340;52.964;6.086;2022-07-01T12:19:45;6.28;;;1.27;;
52414;SDS011;38340;52.964;6.086;2022-07-01T12:22:16;4.15;;;1.80;;
52414;SDS011;38340;52.964;6.086;2022-07-01T12:24:49;3.45;;;1.73;;
52414;SDS011;38340;52.964;6.086;2022-07-01T12:27:16;3.90;;;1.30;;
52414;SDS011;38340;52.964;6.086;2022-07-01T12:32:26;3.63;;;1.50;;
52414;SDS011;38340;52.964;6.086;2022-07-01T12:38:00;5.07;;;1.55;;
52414;SDS011;38340;52.964;6.086;2022-07-01T12:40:27;5.50;;;1.52;;
52414;SDS011;38340;52.964;6.086;2022-07-01T12:42:53;4.10;;;1.58;;
52414;SDS011;38340;52.964;6.086;2022-07-01T12:45:23;5.88;;;2.08;;
52414;SDS011;38340;52.964;6.086;2022-07-01T12:47:59;4.40;;;1.77;;
52414;SDS011;38340;52.964;6.086;2022-07-01T12:52:56;3.13;;;1.45;;
52414;SDS011;38340;52.964;6.086;2022-07-01T12:55:33;4.32;;;1.65;;
52414;SDS011;38340;52.964;6.086;2022-07-01T12:58:07;3.88;;;1.30;;
52414;SDS011;38340;52.964;6.086;2022-07-01T13:00:41;3.90;;;1.50;;
52414;SDS011;38340;52.964;6.086;2022-07-01T13:03:11;6.32;;;1.33;;
52414;SDS011;38340;52.964;6.086;2022-07-01T13:05:38;2.75;;;1.30;;
52414;SDS011;38340;52.964;6.086;2022-07-01T13:08:05;2.97;;;1.30;;
52414;SDS011;38340;52.964;6.086;2022-07-01T13:10:32;4.00;;;1.50;;
52414;SDS011;38340;52.964;6.086;2022-07-01T13:12:58;4.15;;;1.60;;
52414;SDS011;38340;52.964;6.086;2022-07-01T13:15:23;4.60;;;1.42;;
52414;SDS011;38340;52.964;6.086;2022-07-01T13:17:49;4.85;;;1.45;;
52414;SDS011;38340;52.964;6.086;2022-07-01T13:20:16;3.53;;;1.15;;
52414;SDS011;38340;52.964;6.086;2022-07-01T13:22:42;3.65;;;1.10;;
52414;SDS011;38340;52.964;6.086;2022-07-01T13:25:08;3.15;;;1.02;;
52414;SDS011;38340;52.964;6.086;2022-07-01T13:27:34;2.63;;;1.40;;
52414;SDS011;38340;52.964;6.086;2022-07-01T13:30:00;4.15;;;1.25;;
52414;SDS011;38340;52.964;6.086;2022-07-01T13:32:28;6.30;;;1.40;;
52414;SDS011;38340;52.964;6.086;2022-07-01T13:34:54;3.55;;;1.15;;
52414;SDS011;38340;52.964;6.086;2022-07-01T13:37:20;3.90;;;1.40;;
52414;SDS011;38340;52.964;6.086;2022-07-01T13:39:46;2.65;;;1.20;;
52414;SDS011;38340;52.964;6.086;2022-07-01T13:42:11;4.20;;;1.38;;
52414;SDS011;38340;52.964;6.086;2022-07-01T13:44:37;5.47;;;1.67;;
52414;SDS011;38340;52.964;6.086;2022-07-01T13:47:03;2.90;;;1.33;;
52414;SDS011;38340;52.964;6.086;2022-07-01T13:49:34;4.50;;;1.50;;
52414;SDS011;38340;52.964;6.086;2022-07-01T13:52:02;4.78;;;1.60;;
52414;SDS011;38340;52.964;6.086;2022-07-01T13:54:28;3.88;;;1.38;;
52414;SDS011;38340;52.964;6.086;2022-07-01T13:56:54;3.83;;;1.40;;
52414;SDS011;38340;52.964;6.086;2022-07-01T13:59:20;4.82;;;1.60;;
52414;SDS011;38340;52.964;6.086;2022-07-01T14:01:45;3.28;;;1.73;;
52414;SDS011;38340;52.964;6.086;2022-07-01T14:04:11;5.35;;;1.58;;
52414;SDS011;38340;52.964;6.086;2022-07-01T14:06:37;4.80;;;1.40;;
52414;SDS011;38340;52.964;6.086;2022-07-01T14:09:03;4.63;;;1.83;;
52414;SDS011;38340;52.964;6.086;2022-07-01T14:11:29;6.38;;;2.00;;
52414;SDS011;38340;52.964;6.086;2022-07-01T14:13:54;5.15;;;1.70;;
52414;SDS011;38340;52.964;6.086;2022-07-01T14:16:20;6.07;;;2.03;;
52414;SDS011;38340;52.964;6.086;2022-07-01T14:18:46;5.97;;;1.88;;
52414;SDS011;38340;52.964;6.086;2022-07-01T14:21:12;4.57;;;1.50;;
52414;SDS011;38340;52.964;6.086;2022-07-01T14:23:37;4.20;;;1.90;;
52414;SDS011;38340;52.964;6.086;2022-07-01T14:26:03;6.53;;;2.35;;
52414;SDS011;38340;52.964;6.086;2022-07-01T14:28:29;4.55;;;1.70;;
52414;SDS011;38340;52.964;6.086;2022-07-01T14:30:54;6.40;;;1.90;;
52414;SDS011;38340;52.964;6.086;2022-07-01T14:33:20;7.30;;;1.92;;
52414;SDS011;38340;52.964;6.086;2022-07-01T14:35:46;4.40;;;1.60;;
52414;SDS011;38340;52.964;6.086;2022-07-01T14:38:12;5.88;;;1.85;;
52414;SDS011;38340;52.964;6.086;2022-07-01T14:40:40;4.53;;;1.50;;
52414;SDS011;38340;52.964;6.086;2022-07-01T14:43:06;5.03;;;1.30;;
52414;SDS011;38340;52.964;6.086;2022-07-01T14:45:31;4.80;;;1.23;;
52414;SDS011;38340;52.964;6.086;2022-07-01T14:47:57;3.85;;;1.45;;
52414;SDS011;38340;52.964;6.086;2022-07-01T14:50:23;3.50;;;1.30;;
52414;SDS011;38340;52.964;6.086;2022-07-01T14:52:49;4.28;;;1.50;;
52414;SDS011;38340;52.964;6.086;2022-07-01T14:55:14;3.35;;;1.60;;
52414;SDS011;38340;52.964;6.086;2022-07-01T14:57:40;5.22;;;1.60;;
52414;SDS011;38340;52.964;6.086;2022-07-01T15:00:06;3.63;;;1.63;;
52414;SDS011;38340;52.964;6.086;2022-07-01T15:02:33;3.58;;;1.65;;
52414;SDS011;38340;52.964;6.086;2022-07-01T15:04:59;4.25;;;1.60;;
52414;SDS011;38340;52.964;6.086;2022-07-01T15:07:25;7.95;;;1.70;;
52414;SDS011;38340;52.964;6.086;2022-07-01T15:09:51;4.50;;;1.60;;
52414;SDS011;38340;52.964;6.086;2022-07-01T15:12:17;4.38;;;1.50;;
52414;SDS011;38340;52.964;6.086;2022-07-01T15:14:46;4.07;;;1.60;;